sensor_id;sensor_type;location;lat;lon;timestamp;P1;durP1;ratioP1;P2;durP2;ratioP2
17790;SDS011;9019;48.132;-1.210;2023-08-17T00:02:04;5.45;;;3.45;;
17790;SDS011;9019;48.132;-1.210;2023-08-17T00:04:31;5.07;;;3.30;;
17790;SDS011;9019;48.132;-1.210;2023-08-17T00:07:00;6.00;;;3.50;;
17790;SDS011;9019;48.132;-1.210;2023-08-17T00:09:27;5.22;;;3.47;;
17790;SDS011;9019;48.132;-1.210;2023-08-17T00:11:54;5.72;;;3.53;;
17790;SDS011;9019;48.132;-1.210;2023-08-17T00:14:22;5.40;;;3.45;;
17790;SDS011;9019;48.132;-1.210;2023-08-17T00:16:49;5.65;;;3.70;;
17790;SDS011;9019;48.132;-1.210;2023-08-17T00:19:17;6.10;;;3.78;;
17790;SDS011;9019;48.132;-1.210;2023-08-17T00:21:44;5.93;;;4.10;;
17790;SDS011;9019;48.132;-1.210;2023-08-17T00:24:13;4.70;;;3.92;;
17790;SDS011;9019;48.132;-1.210;2023-08-17T00:26:40;7.55;;;3.90;;
17790;SDS011;9019;48.132;-1.210;2023-08-17T00:29:07;5.40;;;3.40;;
17790;SDS011;9019;48.132;-1.210;2023-08-17T00:31:35;4.82;;;3.75;;
17790;SDS011;9019;48.132;-1.210;2023-08-17T00:34:01;6.28;;;3.55;;
17790;SDS011;9019;48.132;-1.210;2023-08-17T00:36:28;7.25;;;3.78;;
17790;SDS011;9019;48.132;-1.210;2023-08-17T00:38:56;4.50;;;3.75;;
17790;SDS011;9019;48.132;-1.210;2023-08-17T00:41:24;7.85;;;3.67;;
17790;SDS011;9019;48.132;-1.210;2023-08-17T00:43:53;8.13;;;3.50;;
17790;SDS011;9019;48.132;-1.210;2023-08-17T00:46:21;5.97;;;3.78;;
17790;SDS011;9019;48.132;-1.210;2023-08-17T00:48:48;5.45;;;3.60;;
17790;SDS011;9019;48.132;-1.210;2023-08-17T00:51:16;5.82;;;3.92;;
17790;SDS011;9019;48.132;-1.210;2023-08-17T00:53:45;7.35;;;4.15;;
17790;SDS011;9019;48.132;-1.210;2023-08-17T00:56:13;7.13;;;4.20;;
17790;SDS011;9019;48.132;-1.210;2023-08-17T00:58:42;5.05;;;3.85;;
17790;SDS011;9019;48.132;-1.210;2023-08-17T01:01:09;7.90;;;3.80;;
17790;SDS011;9019;48.132;-1.210;2023-08-17T01:03:37;5.50;;;3.78;;
17790;SDS011;9019;48.132;-1.210;2023-08-17T01:06:07;5.72;;;4.07;;
17790;SDS011;9019;48.132;-1.210;2023-08-17T01:08:34;5.07;;;4.00;;
17790;SDS011;9019;48.132;-1.210;2023-08-17T01:11:05;5.03;;;3.75;;
17790;SDS011;9019;48.132;-1.210;2023-08-17T01:13:35;7.82;;;3.97;;
17790;SDS011;9019;48.132;-1.210;2023-08-17T01:16:07;4.72;;;3.80;;
17790;SDS011;9019;48.132;-1.210;2023-08-17T01:18:36;4.75;;;3.60;;
17790;SDS011;9019;48.132;-1.210;2023-08-17T01:21:05;7.47;;;4.22;;
17790;SDS011;9019;48.132;-1.210;2023-08-17T01:23:34;5.22;;;4.10;;
17790;SDS011;9019;48.132;-1.210;2023-08-17T01:26:02;7.30;;;3.80;;
17790;SDS011;9019;48.132;-1.210;2023-08-17T01:28:29;6.75;;;4.40;;
17790;SDS011;9019;48.132;-1.210;2023-08-17T01:30:57;5.88;;;4.30;;
17790;SDS011;9019;48.132;-1.210;2023-08-17T01:33:27;6.28;;;4.03;;
17790;SDS011;9019;48.132;-1.210;2023-08-17T01:35:58;5.13;;;3.75;;
17790;SDS011;9019;48.132;-1.210;2023-08-17T01:38:29;5.88;;;3.55;;
17790;SDS011;9019;48.132;-1.210;2023-08-17T01:40:57;5.15;;;3.97;;
17790;SDS011;9019;48.132;-1.210;2023-08-17T01:43:26;5.68;;;3.83;;
17790;SDS011;9019;48.132;-1.210;2023-08-17T01:45:53;6.80;;;3.88;;
17790;SDS011;9019;48.132;-1.210;2023-08-17T01:48:21;5.68;;;3.88;;
17790;SDS011;9019;48.132;-1.210;2023-08-17T01:50:48;6.13;;;3.50;;
17790;SDS011;9019;48.132;-1.210;2023-08-17T01:53:16;5.82;;;3.88;;
17790;SDS011;9019;48.132;-1.210;2023-08-17T01:55:43;4.93;;;3.85;;
17790;SDS011;9019;48.132;-1.210;2023-08-17T01:58:11;4.68;;;3.75;;
17790;SDS011;9019;48.132;-1.210;2023-08-17T02:00:39;5.68;;;3.88;;
17790;SDS011;9019;48.132;-1.210;2023-08-17T02:03:06;6.30;;;3.95;;
17790;SDS011;9019;48.132;-1.210;2023-08-17T02:05:34;6.93;;;4.13;;
17790;SDS011;9019;48.132;-1.210;2023-08-17T02:08:01;5.07;;;3.88;;
17790;SDS011;9019;48.132;-1.210;2023-08-17T02:10:28;5.53;;;3.78;;
17790;SDS011;9019;48.132;-1.210;2023-08-17T02:12:55;4.50;;;3.35;;
17790;SDS011;9019;48.132;-1.210;2023-08-17T02:15:24;7.13;;;3.75;;
17790;SDS011;9019;48.132;-1.210;2023-08-17T02:17:52;5.22;;;3.70;;
17790;SDS011;9019;48.132;-1.210;2023-08-17T02:20:19;5.15;;;3.58;;
17790;SDS011;9019;48.132;-1.210;2023-08-17T02:22:46;5.07;;;3.78;;
17790;SDS011;9019;48.132;-1.210;2023-08-17T02:25:13;5.60;;;3.90;;
17790;SDS011;9019;48.132;-1.210;2023-08-17T02:27:41;8.18;;;4.25;;
17790;SDS011;9019;48.132;-1.210;2023-08-17T02:30:08;5.10;;;3.58;;
17790;SDS011;9019;48.132;-1.210;2023-08-17T02:32:37;6.57;;;3.90;;
17790;SDS011;9019;48.132;-1.210;2023-08-17T02:35:05;5.60;;;3.97;;
17790;SDS011;9019;48.132;-1.210;2023-08-17T02:37:33;4.63;;;3.72;;
17790;SDS011;9019;48.132;-1.210;2023-08-17T02:40:00;4.63;;;3.88;;
17790;SDS011;9019;48.132;-1.210;2023-08-17T02:42:28;5.22;;;3.75;;
17790;SDS011;9019;48.132;-1.210;2023-08-17T02:44:55;6.95;;;4.10;;
17790;SDS011;9019;48.132;-1.210;2023-08-17T02:47:22;5.22;;;4.05;;
17790;SDS011;9019;48.132;-1.210;2023-08-17T02:49:50;6.40;;;4.50;;
17790;SDS011;9019;48.132;-1.210;2023-08-17T02:52:18;6.90;;;4.03;;
17790;SDS011;9019;48.132;-1.210;2023-08-17T02:54:45;5.82;;;4.30;;
17790;SDS011;9019;48.132;-1.210;2023-08-17T02:57:12;5.65;;;4.22;;
17790;SDS011;9019;48.132;-1.210;2023-08-17T02:59:39;6.10;;;4.22;;
17790;SDS011;9019;48.132;-1.210;2023-08-17T03:02:07;7.07;;;4.20;;
17790;SDS011;9019;48.132;-1.210;2023-08-17T03:04:34;6.15;;;4.00;;
17790;SDS011;9019;48.132;-1.210;2023-08-17T03:07:02;5.47;;;3.92;;
17790;SDS011;9019;48.132;-1.210;2023-08-17T03:09:30;7.00;;;4.25;;
17790;SDS011;9019;48.132;-1.210;2023-08-17T03:11:57;5.63;;;4.32;;
17790;SDS011;9019;48.132;-1.210;2023-08-17T03:14:24;4.50;;;4.10;;
17790;SDS011;9019;48.132;-1.210;2023-08-17T03:16:52;6.55;;;4.80;;
17790;SDS011;9019;48.132;-1.210;2023-08-17T03:19:19;5.18;;;4.65;;
17790;SDS011;9019;48.132;-1.210;2023-08-17T03:21:46;5.30;;;4.63;;
17790;SDS011;9019;48.132;-1.210;2023-08-17T03:24:15;5.20;;;4.50;;
17790;SDS011;9019;48.132;-1.210;2023-08-17T03:26:42;7.18;;;4.60;;
17790;SDS011;9019;48.132;-1.210;2023-08-17T03:29:09;6.47;;;5.07;;
17790;SDS011;9019;48.132;-1.210;2023-08-17T03:31:37;6.00;;;4.82;;
17790;SDS011;9019;48.132;-1.210;2023-08-17T03:34:04;7.68;;;4.60;;
17790;SDS011;9019;48.132;-1.210;2023-08-17T03:36:31;5.80;;;4.50;;
17790;SDS011;9019;48.132;-1.210;2023-08-17T03:38:58;7.32;;;4.40;;
17790;SDS011;9019;48.132;-1.210;2023-08-17T03:41:27;5.40;;;4.35;;
17790;SDS011;9019;48.132;-1.210;2023-08-17T03:43:55;4.88;;;4.35;;
17790;SDS011;9019;48.132;-1.210;2023-08-17T03:46:22;5.00;;;4.50;;
17790;SDS011;9019;48.132;-1.210;2023-08-17T03:48:49;7.20;;;4.60;;
17790;SDS011;9019;48.132;-1.210;2023-08-17T03:51:17;5.88;;;4.70;;
17790;SDS011;9019;48.132;-1.210;2023-08-17T03:53:44;7.13;;;4.72;;
17790;SDS011;9019;48.132;-1.210;2023-08-17T03:56:11;5.35;;;4.45;;
17790;SDS011;9019;48.132;-1.210;2023-08-17T03:58:40;5.32;;;4.57;;
17790;SDS011;9019;48.132;-1.210;2023-08-17T04:01:08;5.97;;;4.75;;
17790;SDS011;9019;48.132;-1.210;2023-08-17T04:03:36;7.80;;;5.00;;
17790;SDS011;9019;48.132;-1.210;2023-08-17T04:06:04;5.93;;;4.80;;
17790;SDS011;9019;48.132;-1.210;2023-08-17T04:08:35;8.27;;;5.45;;
17790;SDS011;9019;48.132;-1.210;2023-08-17T04:11:02;7.07;;;5.25;;
17790;SDS011;9019;48.132;-1.210;2023-08-17T04:13:30;9.00;;;6.15;;
17790;SDS011;9019;48.132;-1.210;2023-08-17T04:15:59;6.90;;;5.40;;
17790;SDS011;9019;48.132;-1.210;2023-08-17T04:18:26;7.05;;;5.85;;
17790;SDS011;9019;48.132;-1.210;2023-08-17T04:20:53;8.75;;;5.85;;
17790;SDS011;9019;48.132;-1.210;2023-08-17T04:23:20;6.10;;;5.47;;
17790;SDS011;9019;48.132;-1.210;2023-08-17T04:25:48;6.82;;;5.32;;
17790;SDS011;9019;48.132;-1.210;2023-08-17T04:28:15;7.50;;;5.25;;
17790;SDS011;9019;48.132;-1.210;2023-08-17T04:30:43;7.55;;;5.10;;
17790;SDS011;9019;48.132;-1.210;2023-08-17T04:33:11;6.93;;;5.10;;
17790;SDS011;9019;48.132;-1.210;2023-08-17T04:35:39;9.25;;;5.68;;
17790;SDS011;9019;48.132;-1.210;2023-08-17T04:38:06;8.63;;;5.20;;
17790;SDS011;9019;48.132;-1.210;2023-08-17T04:40:33;7.72;;;5.65;;
17790;SDS011;9019;48.132;-1.210;2023-08-17T04:43:01;6.00;;;5.32;;
17790;SDS011;9019;48.132;-1.210;2023-08-17T04:45:28;6.70;;;5.30;;
17790;SDS011;9019;48.132;-1.210;2023-08-17T04:47:55;9.60;;;5.47;;
17790;SDS011;9019;48.132;-1.210;2023-08-17T04:50:24;6.60;;;5.28;;
17790;SDS011;9019;48.132;-1.210;2023-08-17T04:52:51;7.13;;;5.40;;
17790;SDS011;9019;48.132;-1.210;2023-08-17T04:55:18;7.40;;;5.80;;
17790;SDS011;9019;48.132;-1.210;2023-08-17T04:57:46;8.05;;;5.55;;
17790;SDS011;9019;48.132;-1.210;2023-08-17T05:00:14;12.65;;;6.47;;
17790;SDS011;9019;48.132;-1.210;2023-08-17T05:02:42;9.32;;;6.07;;
17790;SDS011;9019;48.132;-1.210;2023-08-17T05:05:10;8.63;;;6.55;;
17790;SDS011;9019;48.132;-1.210;2023-08-17T05:07:38;9.02;;;6.45;;
17790;SDS011;9019;48.132;-1.210;2023-08-17T05:10:06;6.68;;;5.78;;
17790;SDS011;9019;48.132;-1.210;2023-08-17T05:12:33;8.68;;;5.57;;
17790;SDS011;9019;48.132;-1.210;2023-08-17T05:15:01;10.52;;;6.10;;
17790;SDS011;9019;48.132;-1.210;2023-08-17T05:17:28;7.85;;;5.93;;
17790;SDS011;9019;48.132;-1.210;2023-08-17T05:19:55;8.27;;;6.00;;
17790;SDS011;9019;48.132;-1.210;2023-08-17T05:22:23;7.97;;;5.53;;
17790;SDS011;9019;48.132;-1.210;2023-08-17T05:24:51;8.57;;;5.43;;
17790;SDS011;9019;48.132;-1.210;2023-08-17T05:27:18;8.40;;;5.65;;
17790;SDS011;9019;48.132;-1.210;2023-08-17T05:29:46;9.20;;;5.82;;
17790;SDS011;9019;48.132;-1.210;2023-08-17T05:32:13;6.13;;;5.45;;
17790;SDS011;9019;48.132;-1.210;2023-08-17T05:34:40;6.57;;;5.88;;
17790;SDS011;9019;48.132;-1.210;2023-08-17T05:37:08;9.00;;;6.00;;
17790;SDS011;9019;48.132;-1.210;2023-08-17T05:39:35;7.13;;;6.05;;
17790;SDS011;9019;48.132;-1.210;2023-08-17T05:42:04;7.75;;;6.50;;
17790;SDS011;9019;48.132;-1.210;2023-08-17T05:44:32;11.30;;;6.93;;
17790;SDS011;9019;48.132;-1.210;2023-08-17T05:46:59;6.85;;;6.00;;
17790;SDS011;9019;48.132;-1.210;2023-08-17T05:49:27;7.47;;;5.95;;
17790;SDS011;9019;48.132;-1.210;2023-08-17T05:51:54;9.73;;;6.32;;
17790;SDS011;9019;48.132;-1.210;2023-08-17T05:54:21;8.55;;;6.10;;
17790;SDS011;9019;48.132;-1.210;2023-08-17T05:56:49;8.07;;;6.15;;
17790;SDS011;9019;48.132;-1.210;2023-08-17T05:59:18;6.47;;;5.55;;
17790;SDS011;9019;48.132;-1.210;2023-08-17T06:01:45;7.50;;;6.13;;
17790;SDS011;9019;48.132;-1.210;2023-08-17T06:04:13;7.07;;;5.65;;
17790;SDS011;9019;48.132;-1.210;2023-08-17T06:06:40;13.02;;;5.43;;
17790;SDS011;9019;48.132;-1.210;2023-08-17T06:09:08;5.78;;;5.20;;
17790;SDS011;9019;48.132;-1.210;2023-08-17T06:11:35;8.93;;;5.82;;
17790;SDS011;9019;48.132;-1.210;2023-08-17T06:14:02;6.05;;;5.45;;
17790;SDS011;9019;48.132;-1.210;2023-08-17T06:16:32;6.10;;;5.50;;
17790;SDS011;9019;48.132;-1.210;2023-08-17T06:19:00;7.38;;;5.30;;
17790;SDS011;9019;48.132;-1.210;2023-08-17T06:21:27;6.95;;;5.38;;
17790;SDS011;9019;48.132;-1.210;2023-08-17T06:23:55;6.88;;;5.50;;
17790;SDS011;9019;48.132;-1.210;2023-08-17T06:26:22;9.10;;;5.07;;
17790;SDS011;9019;48.132;-1.210;2023-08-17T06:28:49;6.70;;;5.03;;
17790;SDS011;9019;48.132;-1.210;2023-08-17T06:31:16;5.65;;;4.60;;
17790;SDS011;9019;48.132;-1.210;2023-08-17T06:33:45;5.53;;;4.95;;
17790;SDS011;9019;48.132;-1.210;2023-08-17T06:36:12;5.25;;;4.72;;
17790;SDS011;9019;48.132;-1.210;2023-08-17T06:38:41;6.50;;;5.13;;
17790;SDS011;9019;48.132;-1.210;2023-08-17T06:41:08;7.38;;;5.25;;
17790;SDS011;9019;48.132;-1.210;2023-08-17T06:43:36;7.97;;;5.05;;
17790;SDS011;9019;48.132;-1.210;2023-08-17T06:46:03;6.15;;;4.55;;
17790;SDS011;9019;48.132;-1.210;2023-08-17T06:48:30;6.10;;;4.80;;
17790;SDS011;9019;48.132;-1.210;2023-08-17T06:50:59;8.88;;;4.80;;
17790;SDS011;9019;48.132;-1.210;2023-08-17T06:53:27;7.53;;;4.90;;
17790;SDS011;9019;48.132;-1.210;2023-08-17T06:55:55;6.32;;;4.70;;
17790;SDS011;9019;48.132;-1.210;2023-08-17T06:58:22;8.30;;;5.00;;
17790;SDS011;9019;48.132;-1.210;2023-08-17T07:00:49;6.43;;;5.30;;
17790;SDS011;9019;48.132;-1.210;2023-08-17T07:03:16;6.82;;;4.88;;
17790;SDS011;9019;48.132;-1.210;2023-08-17T07:05:43;7.82;;;4.90;;
17790;SDS011;9019;48.132;-1.210;2023-08-17T07:08:12;7.18;;;5.10;;
17790;SDS011;9019;48.132;-1.210;2023-08-17T07:10:39;5.32;;;4.80;;
17790;SDS011;9019;48.132;-1.210;2023-08-17T07:13:07;8.57;;;5.03;;
17790;SDS011;9019;48.132;-1.210;2023-08-17T07:15:34;6.72;;;4.80;;
17790;SDS011;9019;48.132;-1.210;2023-08-17T07:18:01;6.00;;;4.95;;
17790;SDS011;9019;48.132;-1.210;2023-08-17T07:20:29;7.07;;;4.75;;
17790;SDS011;9019;48.132;-1.210;2023-08-17T07:22:56;5.28;;;4.38;;
17790;SDS011;9019;48.132;-1.210;2023-08-17T07:25:25;6.72;;;4.45;;
17790;SDS011;9019;48.132;-1.210;2023-08-17T07:27:53;7.40;;;4.40;;
17790;SDS011;9019;48.132;-1.210;2023-08-17T07:30:21;7.30;;;4.88;;
17790;SDS011;9019;48.132;-1.210;2023-08-17T07:32:48;6.72;;;4.50;;
17790;SDS011;9019;48.132;-1.210;2023-08-17T07:35:16;5.82;;;4.35;;
17790;SDS011;9019;48.132;-1.210;2023-08-17T07:37:43;6.57;;;4.40;;
17790;SDS011;9019;48.132;-1.210;2023-08-17T07:40:10;5.13;;;4.63;;
17790;SDS011;9019;48.132;-1.210;2023-08-17T07:42:39;5.10;;;4.22;;
17790;SDS011;9019;48.132;-1.210;2023-08-17T07:45:07;6.13;;;4.50;;
17790;SDS011;9019;48.132;-1.210;2023-08-17T07:47:34;6.07;;;3.90;;
17790;SDS011;9019;48.132;-1.210;2023-08-17T07:50:02;5.05;;;4.35;;
17790;SDS011;9019;48.132;-1.210;2023-08-17T07:52:30;8.20;;;4.70;;
17790;SDS011;9019;48.132;-1.210;2023-08-17T07:54:57;5.30;;;4.03;;
17790;SDS011;9019;48.132;-1.210;2023-08-17T07:57:24;4.85;;;4.40;;
17790;SDS011;9019;48.132;-1.210;2023-08-17T07:59:53;4.57;;;4.18;;
17790;SDS011;9019;48.132;-1.210;2023-08-17T08:02:20;6.45;;;4.53;;
17790;SDS011;9019;48.132;-1.210;2023-08-17T08:04:47;5.18;;;4.40;;
17790;SDS011;9019;48.132;-1.210;2023-08-17T08:07:15;5.25;;;4.45;;
17790;SDS011;9019;48.132;-1.210;2023-08-17T08:09:42;5.10;;;4.32;;
17790;SDS011;9019;48.132;-1.210;2023-08-17T08:12:10;4.85;;;4.35;;
17790;SDS011;9019;48.132;-1.210;2023-08-17T08:14:37;4.50;;;4.07;;
17790;SDS011;9019;48.132;-1.210;2023-08-17T08:17:06;5.05;;;4.25;;
17790;SDS011;9019;48.132;-1.210;2023-08-17T08:19:33;4.72;;;4.22;;
17790;SDS011;9019;48.132;-1.210;2023-08-17T08:22:00;7.03;;;4.55;;
17790;SDS011;9019;48.132;-1.210;2023-08-17T08:24:28;6.00;;;4.10;;
17790;SDS011;9019;48.132;-1.210;2023-08-17T08:26:59;5.25;;;4.75;;
17790;SDS011;9019;48.132;-1.210;2023-08-17T08:29:27;4.90;;;4.30;;
17790;SDS011;9019;48.132;-1.210;2023-08-17T08:31:54;4.40;;;4.00;;
17790;SDS011;9019;48.132;-1.210;2023-08-17T08:34:25;6.00;;;4.63;;
17790;SDS011;9019;48.132;-1.210;2023-08-17T08:36:53;5.10;;;4.57;;
17790;SDS011;9019;48.132;-1.210;2023-08-17T08:39:20;5.50;;;4.38;;
17790;SDS011;9019;48.132;-1.210;2023-08-17T08:41:47;8.05;;;4.72;;
17790;SDS011;9019;48.132;-1.210;2023-08-17T08:44:14;6.53;;;4.57;;
17790;SDS011;9019;48.132;-1.210;2023-08-17T08:46:42;5.03;;;4.53;;
17790;SDS011;9019;48.132;-1.210;2023-08-17T08:49:11;5.40;;;4.72;;
17790;SDS011;9019;48.132;-1.210;2023-08-17T08:51:41;4.97;;;4.53;;
17790;SDS011;9019;48.132;-1.210;2023-08-17T08:54:10;5.10;;;4.60;;
17790;SDS011;9019;48.132;-1.210;2023-08-17T08:56:41;5.03;;;4.45;;
17790;SDS011;9019;48.132;-1.210;2023-08-17T08:59:09;6.32;;;4.55;;
17790;SDS011;9019;48.132;-1.210;2023-08-17T09:01:36;5.75;;;4.50;;
17790;SDS011;9019;48.132;-1.210;2023-08-17T09:04:05;5.28;;;4.03;;
17790;SDS011;9019;48.132;-1.210;2023-08-17T09:06:32;4.85;;;4.28;;
17790;SDS011;9019;48.132;-1.210;2023-08-17T09:09:02;4.82;;;4.32;;
17790;SDS011;9019;48.132;-1.210;2023-08-17T09:11:29;4.75;;;4.28;;
17790;SDS011;9019;48.132;-1.210;2023-08-17T09:13:56;5.25;;;4.30;;
17790;SDS011;9019;48.132;-1.210;2023-08-17T09:16:24;4.45;;;3.97;;
17790;SDS011;9019;48.132;-1.210;2023-08-17T09:18:52;4.28;;;3.83;;
17790;SDS011;9019;48.132;-1.210;2023-08-17T09:21:20;7.90;;;4.60;;
17790;SDS011;9019;48.132;-1.210;2023-08-17T09:23:50;4.88;;;3.97;;
17790;SDS011;9019;48.132;-1.210;2023-08-17T09:26:20;5.60;;;4.53;;
17790;SDS011;9019;48.132;-1.210;2023-08-17T09:28:48;5.25;;;4.20;;
17790;SDS011;9019;48.132;-1.210;2023-08-17T09:31:16;6.60;;;4.40;;
17790;SDS011;9019;48.132;-1.210;2023-08-17T09:33:43;4.85;;;4.13;;
17790;SDS011;9019;48.132;-1.210;2023-08-17T09:36:19;4.47;;;4.07;;
17790;SDS011;9019;48.132;-1.210;2023-08-17T09:38:47;4.82;;;3.92;;
17790;SDS011;9019;48.132;-1.210;2023-08-17T09:41:17;5.90;;;4.32;;
17790;SDS011;9019;48.132;-1.210;2023-08-17T09:43:46;4.72;;;4.10;;
17790;SDS011;9019;48.132;-1.210;2023-08-17T09:46:14;4.70;;;3.95;;
17790;SDS011;9019;48.132;-1.210;2023-08-17T09:48:43;4.82;;;3.67;;
17790;SDS011;9019;48.132;-1.210;2023-08-17T09:51:10;4.93;;;4.15;;
17790;SDS011;9019;48.132;-1.210;2023-08-17T09:53:42;4.70;;;3.55;;
17790;SDS011;9019;48.132;-1.210;2023-08-17T09:56:10;4.22;;;3.70;;
17790;SDS011;9019;48.132;-1.210;2023-08-17T09:58:40;4.53;;;4.13;;
17790;SDS011;9019;48.132;-1.210;2023-08-17T10:01:09;4.53;;;4.13;;
17790;SDS011;9019;48.132;-1.210;2023-08-17T10:03:39;4.93;;;3.60;;
17790;SDS011;9019;48.132;-1.210;2023-08-17T10:06:06;4.85;;;4.15;;
17790;SDS011;9019;48.132;-1.210;2023-08-17T10:08:38;4.80;;;4.20;;
17790;SDS011;9019;48.132;-1.210;2023-08-17T10:11:06;5.65;;;4.90;;
17790;SDS011;9019;48.132;-1.210;2023-08-17T10:13:35;4.93;;;4.25;;
17790;SDS011;9019;48.132;-1.210;2023-08-17T10:16:04;6.30;;;4.15;;
17790;SDS011;9019;48.132;-1.210;2023-08-17T10:18:35;7.55;;;5.72;;
17790;SDS011;9019;48.132;-1.210;2023-08-17T10:21:06;5.18;;;4.55;;
17790;SDS011;9019;48.132;-1.210;2023-08-17T10:23:33;4.65;;;4.18;;
17790;SDS011;9019;48.132;-1.210;2023-08-17T10:26:02;3.97;;;3.60;;
17790;SDS011;9019;48.132;-1.210;2023-08-17T10:28:30;5.25;;;3.90;;
17790;SDS011;9019;48.132;-1.210;2023-08-17T10:30:58;5.53;;;3.97;;
17790;SDS011;9019;48.132;-1.210;2023-08-17T10:33:26;5.72;;;4.95;;
17790;SDS011;9019;48.132;-1.210;2023-08-17T10:35:55;6.13;;;3.80;;
17790;SDS011;9019;48.132;-1.210;2023-08-17T10:38:22;5.03;;;4.13;;
17790;SDS011;9019;48.132;-1.210;2023-08-17T10:41:07;5.53;;;4.07;;
17790;SDS011;9019;48.132;-1.210;2023-08-17T10:43:34;5.68;;;4.10;;
17790;SDS011;9019;48.132;-1.210;2023-08-17T10:46:14;5.10;;;4.68;;
17790;SDS011;9019;48.132;-1.210;2023-08-17T10:48:43;4.63;;;4.22;;
17790;SDS011;9019;48.132;-1.210;2023-08-17T10:51:11;5.05;;;4.50;;
17790;SDS011;9019;48.132;-1.210;2023-08-17T10:53:40;5.68;;;4.07;;
17790;SDS011;9019;48.132;-1.210;2023-08-17T10:56:12;6.65;;;4.07;;
17790;SDS011;9019;48.132;-1.210;2023-08-17T10:58:44;4.53;;;3.70;;
17790;SDS011;9019;48.132;-1.210;2023-08-17T11:01:12;4.97;;;4.47;;
17790;SDS011;9019;48.132;-1.210;2023-08-17T11:03:45;5.15;;;4.32;;
17790;SDS011;9019;48.132;-1.210;2023-08-17T11:06:17;4.68;;;4.28;;
17790;SDS011;9019;48.132;-1.210;2023-08-17T11:08:51;4.45;;;4.05;;
17790;SDS011;9019;48.132;-1.210;2023-08-17T11:11:20;3.90;;;3.60;;
17790;SDS011;9019;48.132;-1.210;2023-08-17T11:13:48;5.60;;;4.25;;
17790;SDS011;9019;48.132;-1.210;2023-08-17T11:16:16;4.95;;;4.00;;
17790;SDS011;9019;48.132;-1.210;2023-08-17T11:18:45;4.25;;;3.83;;
17790;SDS011;9019;48.132;-1.210;2023-08-17T11:21:12;5.95;;;4.03;;
17790;SDS011;9019;48.132;-1.210;2023-08-17T11:23:42;5.45;;;4.07;;
17790;SDS011;9019;48.132;-1.210;2023-08-17T11:26:10;4.40;;;3.92;;
17790;SDS011;9019;48.132;-1.210;2023-08-17T11:28:37;4.93;;;4.25;;
17790;SDS011;9019;48.132;-1.210;2023-08-17T11:31:06;5.00;;;4.05;;
17790;SDS011;9019;48.132;-1.210;2023-08-17T11:33:34;4.65;;;4.03;;
17790;SDS011;9019;48.132;-1.210;2023-08-17T11:36:03;5.00;;;3.63;;
17790;SDS011;9019;48.132;-1.210;2023-08-17T11:38:32;5.47;;;3.80;;
17790;SDS011;9019;48.132;-1.210;2023-08-17T11:41:00;5.07;;;3.60;;
17790;SDS011;9019;48.132;-1.210;2023-08-17T11:43:29;4.07;;;3.70;;
17790;SDS011;9019;48.132;-1.210;2023-08-17T11:45:57;4.32;;;3.78;;
17790;SDS011;9019;48.132;-1.210;2023-08-17T11:48:25;4.28;;;3.88;;
17790;SDS011;9019;48.132;-1.210;2023-08-17T11:50:53;4.18;;;3.75;;
17790;SDS011;9019;48.132;-1.210;2023-08-17T11:53:20;8.68;;;4.20;;
17790;SDS011;9019;48.132;-1.210;2023-08-17T11:55:47;5.28;;;4.25;;
17790;SDS011;9019;48.132;-1.210;2023-08-17T11:58:16;6.68;;;3.92;;
17790;SDS011;9019;48.132;-1.210;2023-08-17T12:00:44;4.28;;;3.60;;
17790;SDS011;9019;48.132;-1.210;2023-08-17T12:03:14;5.85;;;3.53;;
17790;SDS011;9019;48.132;-1.210;2023-08-17T12:05:42;3.70;;;3.40;;
17790;SDS011;9019;48.132;-1.210;2023-08-17T12:08:10;5.90;;;3.65;;
17790;SDS011;9019;48.132;-1.210;2023-08-17T12:10:38;5.65;;;3.50;;
17790;SDS011;9019;48.132;-1.210;2023-08-17T12:13:05;5.35;;;3.67;;
17790;SDS011;9019;48.132;-1.210;2023-08-17T12:15:34;4.85;;;3.80;;
17790;SDS011;9019;48.132;-1.210;2023-08-17T12:18:03;3.90;;;3.50;;
17790;SDS011;9019;48.132;-1.210;2023-08-17T12:20:32;5.70;;;3.83;;
17790;SDS011;9019;48.132;-1.210;2023-08-17T12:23:02;4.60;;;3.75;;
17790;SDS011;9019;48.132;-1.210;2023-08-17T12:25:29;4.35;;;3.53;;
17790;SDS011;9019;48.132;-1.210;2023-08-17T12:27:57;5.80;;;3.80;;
17790;SDS011;9019;48.132;-1.210;2023-08-17T12:30:26;5.03;;;3.70;;
17790;SDS011;9019;48.132;-1.210;2023-08-17T12:32:56;5.38;;;3.67;;
17790;SDS011;9019;48.132;-1.210;2023-08-17T12:35:23;4.70;;;3.90;;
17790;SDS011;9019;48.132;-1.210;2023-08-17T12:37:51;4.20;;;3.80;;
17790;SDS011;9019;48.132;-1.210;2023-08-17T12:40:18;4.32;;;3.60;;
17790;SDS011;9019;48.132;-1.210;2023-08-17T12:42:46;5.03;;;3.90;;
17790;SDS011;9019;48.132;-1.210;2023-08-17T12:45:13;5.93;;;4.07;;
17790;SDS011;9019;48.132;-1.210;2023-08-17T12:47:41;4.20;;;3.80;;
17790;SDS011;9019;48.132;-1.210;2023-08-17T12:50:10;6.20;;;3.85;;
17790;SDS011;9019;48.132;-1.210;2023-08-17T12:52:37;6.03;;;4.30;;
17790;SDS011;9019;48.132;-1.210;2023-08-17T12:55:05;4.90;;;3.88;;
17790;SDS011;9019;48.132;-1.210;2023-08-17T12:57:32;4.47;;;3.78;;
17790;SDS011;9019;48.132;-1.210;2023-08-17T13:00:00;4.80;;;4.30;;
17790;SDS011;9019;48.132;-1.210;2023-08-17T13:02:27;5.78;;;3.92;;
17790;SDS011;9019;48.132;-1.210;2023-08-17T13:04:54;7.05;;;3.95;;
17790;SDS011;9019;48.132;-1.210;2023-08-17T13:07:24;4.68;;;4.28;;
17790;SDS011;9019;48.132;-1.210;2023-08-17T13:09:51;5.13;;;3.70;;
17790;SDS011;9019;48.132;-1.210;2023-08-17T13:12:19;4.97;;;3.72;;
17790;SDS011;9019;48.132;-1.210;2023-08-17T13:14:47;4.03;;;3.63;;
17790;SDS011;9019;48.132;-1.210;2023-08-17T13:17:14;5.07;;;3.50;;
17790;SDS011;9019;48.132;-1.210;2023-08-17T13:19:42;5.70;;;4.00;;
17790;SDS011;9019;48.132;-1.210;2023-08-17T13:22:10;5.03;;;4.10;;
17790;SDS011;9019;48.132;-1.210;2023-08-17T13:24:39;4.90;;;3.45;;
17790;SDS011;9019;48.132;-1.210;2023-08-17T13:27:06;4.78;;;3.85;;
17790;SDS011;9019;48.132;-1.210;2023-08-17T13:29:34;5.32;;;3.58;;
17790;SDS011;9019;48.132;-1.210;2023-08-17T13:32:04;6.68;;;3.83;;
17790;SDS011;9019;48.132;-1.210;2023-08-17T13:34:31;4.00;;;3.70;;
17790;SDS011;9019;48.132;-1.210;2023-08-17T13:36:59;6.10;;;4.32;;
17790;SDS011;9019;48.132;-1.210;2023-08-17T13:39:28;6.47;;;4.35;;
17790;SDS011;9019;48.132;-1.210;2023-08-17T13:41:56;5.35;;;4.05;;
17790;SDS011;9019;48.132;-1.210;2023-08-17T13:44:23;7.63;;;4.18;;
17790;SDS011;9019;48.132;-1.210;2023-08-17T13:46:51;7.97;;;4.13;;
17790;SDS011;9019;48.132;-1.210;2023-08-17T13:49:18;4.45;;;4.05;;
17790;SDS011;9019;48.132;-1.210;2023-08-17T13:51:46;5.97;;;4.10;;
17790;SDS011;9019;48.132;-1.210;2023-08-17T13:54:14;5.00;;;3.92;;
17790;SDS011;9019;48.132;-1.210;2023-08-17T13:56:41;5.40;;;3.92;;
17790;SDS011;9019;48.132;-1.210;2023-08-17T13:59:10;4.47;;;4.00;;
17790;SDS011;9019;48.132;-1.210;2023-08-17T14:01:37;4.22;;;3.80;;
17790;SDS011;9019;48.132;-1.210;2023-08-17T14:04:05;6.25;;;3.90;;
17790;SDS011;9019;48.132;-1.210;2023-08-17T14:06:36;6.95;;;4.20;;
17790;SDS011;9019;48.132;-1.210;2023-08-17T14:09:04;4.20;;;3.90;;
17790;SDS011;9019;48.132;-1.210;2023-08-17T14:11:31;4.55;;;3.67;;
17790;SDS011;9019;48.132;-1.210;2023-08-17T14:13:59;5.90;;;3.80;;
17790;SDS011;9019;48.132;-1.210;2023-08-17T14:16:28;4.25;;;3.85;;
17790;SDS011;9019;48.132;-1.210;2023-08-17T14:18:55;6.07;;;3.88;;
17790;SDS011;9019;48.132;-1.210;2023-08-17T14:21:22;4.05;;;3.53;;
17790;SDS011;9019;48.132;-1.210;2023-08-17T14:23:50;4.40;;;3.65;;
17790;SDS011;9019;48.132;-1.210;2023-08-17T14:26:17;4.25;;;3.60;;
17790;SDS011;9019;48.132;-1.210;2023-08-17T14:28:44;4.50;;;3.72;;
17790;SDS011;9019;48.132;-1.210;2023-08-17T14:31:12;4.00;;;3.60;;
17790;SDS011;9019;48.132;-1.210;2023-08-17T14:33:43;4.25;;;3.55;;
17790;SDS011;9019;48.132;-1.210;2023-08-17T14:36:12;4.75;;;3.40;;
17790;SDS011;9019;48.132;-1.210;2023-08-17T14:38:41;4.70;;;3.53;;
17790;SDS011;9019;48.132;-1.210;2023-08-17T14:41:09;4.43;;;3.70;;
17790;SDS011;9019;48.132;-1.210;2023-08-17T14:43:36;4.35;;;3.90;;
17790;SDS011;9019;48.132;-1.210;2023-08-17T14:46:03;4.60;;;3.60;;
17790;SDS011;9019;48.132;-1.210;2023-08-17T14:48:31;5.75;;;4.13;;
17790;SDS011;9019;48.132;-1.210;2023-08-17T14:50:59;4.95;;;4.22;;
17790;SDS011;9019;48.132;-1.210;2023-08-17T14:53:27;4.57;;;4.13;;